createdAt,value
2022-12-11T00:01:24.378Z,5.28
2022-12-11T00:06:24.275Z,5.14
2022-12-11T00:11:24.441Z,5.13
2022-12-11T00:16:27.072Z,5.15
2022-12-11T00:21:24.401Z,5.10
2022-12-11T00:26:24.189Z,5.02
2022-12-11T00:31:24.440Z,5.08
2022-12-11T00:36:24.211Z,5.07
2022-12-11T00:41:24.348Z,5.06
2022-12-11T00:46:24.236Z,4.95
2022-12-11T00:51:24.337Z,4.94
2022-12-11T00:56:24.477Z,4.85
2022-12-11T01:01:24.413Z,4.80
2022-12-11T01:06:24.144Z,4.74
2022-12-11T01:11:24.282Z,4.81
2022-12-11T01:16:24.484Z,4.71
2022-12-11T01:21:24.198Z,4.74
2022-12-11T01:26:24.344Z,4.80
2022-12-11T01:31:24.175Z,4.81
2022-12-11T01:36:24.336Z,4.79
2022-12-11T01:41:24.196Z,4.70
2022-12-11T01:46:24.257Z,4.61
2022-12-11T01:51:24.222Z,4.55
2022-12-11T01:56:24.218Z,4.44
2022-12-11T02:01:24.265Z,4.43
2022-12-11T02:06:24.228Z,4.26
2022-12-11T02:11:24.208Z,4.15
2022-12-11T02:16:24.275Z,4.05
2022-12-11T02:21:24.376Z,4.04
2022-12-11T02:26:24.765Z,4.10
2022-12-11T02:31:24.360Z,4.09
2022-12-11T02:36:24.233Z,4.00
2022-12-11T02:41:24.328Z,4.02
2022-12-11T02:46:24.459Z,3.97
2022-12-11T02:51:24.311Z,3.91
2022-12-11T02:56:24.235Z,3.79
2022-12-11T03:01:24.603Z,3.78
2022-12-11T03:06:24.376Z,3.83
2022-12-11T03:11:24.547Z,3.74
2022-12-11T03:16:24.269Z,3.75
2022-12-11T03:26:24.320Z,3.66
2022-12-11T03:31:24.460Z,3.70
2022-12-11T03:36:24.291Z,3.64
2022-12-11T03:41:24.265Z,3.61
2022-12-11T03:46:24.339Z,3.47
2022-12-11T03:51:24.233Z,3.48
2022-12-11T03:56:24.657Z,3.53
2022-12-11T04:01:24.375Z,3.49
2022-12-11T04:06:24.532Z,3.55
2022-12-11T04:11:24.270Z,3.47
2022-12-11T04:16:24.471Z,3.43
2022-12-11T04:21:24.327Z,3.39
2022-12-11T04:31:24.653Z,3.30
2022-12-11T04:36:24.438Z,3.26
2022-12-11T04:41:24.557Z,3.42
2022-12-11T04:46:24.336Z,3.25
2022-12-11T04:51:24.266Z,3.37
2022-12-11T04:56:24.284Z,3.33
2022-12-11T05:01:24.326Z,3.32
2022-12-11T05:06:24.277Z,3.33
2022-12-11T05:11:24.240Z,3.36
2022-12-11T05:16:24.373Z,3.27
2022-12-11T05:21:24.261Z,3.22
2022-12-11T05:26:24.609Z,3.18
2022-12-11T05:31:24.344Z,3.26
2022-12-11T05:36:24.556Z,3.25
2022-12-11T05:41:24.309Z,3.10
2022-12-11T05:46:24.592Z,3.23
2022-12-11T05:51:24.298Z,3.17
2022-12-11T05:56:24.514Z,3.08
2022-12-11T06:01:24.334Z,3.17
2022-12-11T06:06:24.482Z,3.26
2022-12-11T06:11:24.637Z,3.14
2022-12-11T06:16:24.491Z,3.17
2022-12-11T06:21:24.306Z,3.11
2022-12-11T06:26:24.410Z,3.08
2022-12-11T06:31:24.605Z,3.15
2022-12-11T06:36:24.386Z,3.12
2022-12-11T06:46:24.432Z,2.96
2022-12-11T06:51:24.499Z,3.04
2022-12-11T06:56:24.321Z,3.02
2022-12-11T07:01:24.647Z,3.10
2022-12-11T07:06:24.608Z,2.91
2022-12-11T07:11:24.418Z,2.96
2022-12-11T07:16:24.374Z,2.98
2022-12-11T07:21:24.458Z,3.04
2022-12-11T07:26:24.325Z,3.00
2022-12-11T07:31:24.423Z,3.10
2022-12-11T07:36:24.298Z,3.15
2022-12-11T07:41:24.358Z,3.20
2022-12-11T07:46:24.336Z,3.16
2022-12-11T07:51:24.344Z,3.19
2022-12-11T07:56:24.326Z,3.32
2022-12-11T08:01:24.361Z,3.36
2022-12-11T08:06:24.438Z,3.31
2022-12-11T08:11:24.583Z,3.21
2022-12-11T08:16:24.434Z,3.36
2022-12-11T08:31:24.761Z,3.33
2022-12-11T08:36:24.658Z,3.26
2022-12-11T08:41:24.349Z,3.34
2022-12-11T08:46:24.702Z,3.30
2022-12-11T08:51:24.353Z,3.31
2022-12-11T09:01:24.464Z,3.30
2022-12-11T09:06:24.580Z,3.37
2022-12-11T09:11:24.375Z,3.30
2022-12-11T09:16:24.448Z,3.18
2022-12-11T09:21:24.374Z,3.19
2022-12-11T09:26:24.397Z,3.27
2022-12-11T09:31:24.700Z,3.28
2022-12-11T09:36:24.373Z,3.30
2022-12-11T09:41:24.618Z,3.36
2022-12-11T09:46:24.767Z,3.44
2022-12-11T09:51:24.582Z,3.42
2022-12-11T09:53:16.880Z,3.42
2022-12-11T10:01:26.582Z,3.43
2022-12-11T10:06:24.390Z,3.41
2022-12-11T10:11:24.525Z,3.58
2022-12-11T10:16:24.666Z,3.55
2022-12-11T10:21:24.512Z,3.44
2022-12-11T10:26:24.615Z,3.50
2022-12-11T10:31:24.552Z,3.53
2022-12-11T10:36:24.569Z,3.54
2022-12-11T10:41:24.408Z,3.57
2022-12-11T10:51:24.982Z,3.51
2022-12-11T10:56:24.546Z,3.43
2022-12-11T11:01:24.419Z,3.45
2022-12-11T11:06:24.518Z,3.44
2022-12-11T11:11:24.635Z,3.52
2022-12-11T11:16:24.521Z,3.61
2022-12-11T11:21:24.425Z,3.49
2022-12-11T11:26:30.760Z,3.56
2022-12-11T11:31:24.629Z,3.60
2022-12-11T11:36:26.752Z,3.55
2022-12-11T11:41:24.440Z,3.61
2022-12-11T11:46:24.496Z,3.66
2022-12-11T11:51:24.431Z,3.73
2022-12-11T12:01:24.474Z,3.70
2022-12-11T12:06:24.654Z,3.72
2022-12-11T12:11:24.446Z,3.69
2022-12-11T12:16:51.712Z,3.67
2022-12-11T12:21:24.764Z,3.61
2022-12-11T12:26:24.673Z,3.65
2022-12-11T12:31:24.749Z,3.60
2022-12-11T12:36:24.475Z,3.62
2022-12-11T12:41:24.701Z,3.66
2022-12-11T12:51:25.085Z,3.67
2022-12-11T12:56:24.717Z,3.58
2022-12-11T13:01:24.700Z,3.65
2022-12-11T13:06:26.777Z,3.61
2022-12-11T13:11:24.458Z,3.76
2022-12-11T13:16:24.467Z,3.72
2022-12-11T13:21:24.549Z,3.64
2022-12-11T13:26:24.719Z,3.66
2022-12-11T13:31:24.734Z,3.74
2022-12-11T13:36:24.978Z,3.76
2022-12-11T13:41:24.583Z,3.82
2022-12-11T13:46:24.826Z,3.69
2022-12-11T13:51:24.997Z,3.67
2022-12-11T13:56:24.685Z,3.59
2022-12-11T14:01:25.052Z,3.74
2022-12-11T14:06:24.605Z,3.58
2022-12-11T14:11:24.704Z,3.68
2022-12-11T14:16:24.601Z,3.59
2022-12-11T14:21:24.512Z,3.42
2022-12-11T14:26:24.467Z,3.47
2022-12-11T14:31:24.595Z,3.44
2022-12-11T14:36:24.517Z,3.42
2022-12-11T14:41:24.521Z,3.26
2022-12-11T14:46:24.850Z,3.33
2022-12-11T14:51:24.658Z,3.24
2022-12-11T14:56:24.752Z,3.16
2022-12-11T15:01:24.760Z,3.12
2022-12-11T15:06:24.734Z,3.08
2022-12-11T15:11:24.488Z,2.98
2022-12-11T15:16:24.880Z,3.12
2022-12-11T15:21:24.466Z,2.92
2022-12-11T15:26:24.667Z,2.81
2022-12-11T15:31:24.813Z,3.00
2022-12-11T15:36:24.585Z,2.89
2022-12-11T15:41:24.726Z,2.90
2022-12-11T15:46:24.733Z,2.84
2022-12-11T15:51:24.767Z,2.83
2022-12-11T15:56:24.577Z,2.71
2022-12-11T16:01:25.169Z,2.75
2022-12-11T16:16:25.132Z,2.67
2022-12-11T16:21:24.659Z,2.70
2022-12-11T16:26:24.743Z,2.60
2022-12-11T16:31:24.745Z,2.55
2022-12-11T16:36:24.519Z,2.62
2022-12-11T16:41:24.586Z,2.67
2022-12-11T16:46:24.957Z,2.64
2022-12-11T16:51:24.570Z,2.68
2022-12-11T16:56:24.508Z,2.63
2022-12-11T17:01:24.575Z,2.50
2022-12-11T17:06:24.787Z,2.58
2022-12-11T17:11:24.817Z,2.44
2022-12-11T17:16:24.750Z,2.42
2022-12-11T17:21:25.464Z,2.34
2022-12-11T17:26:24.716Z,2.35
2022-12-11T17:31:25.287Z,2.41
2022-12-11T17:36:24.555Z,2.32
2022-12-11T17:41:24.830Z,2.30
2022-12-11T17:46:24.874Z,2.32
2022-12-11T17:51:24.778Z,2.19
2022-12-11T17:56:24.841Z,2.27
2022-12-11T18:01:24.989Z,2.16
2022-12-11T18:06:24.811Z,2.36
2022-12-11T18:11:24.828Z,2.22
2022-12-11T18:16:24.983Z,2.11
2022-12-11T18:21:24.719Z,2.22
2022-12-11T18:26:24.911Z,2.15
2022-12-11T18:31:25.252Z,2.09
2022-12-11T18:36:24.929Z,2.17
2022-12-11T18:41:24.867Z,2.09
2022-12-11T18:46:24.829Z,2.20
2022-12-11T18:51:25.013Z,2.10
2022-12-11T18:56:24.769Z,2.09
2022-12-11T19:01:25.003Z,2.18
2022-12-11T19:06:24.867Z,2.04
2022-12-11T19:11:25.008Z,2.01
2022-12-11T19:16:24.992Z,1.99
2022-12-11T19:21:24.869Z,1.96
2022-12-11T19:26:25.027Z,1.99
2022-12-11T19:31:24.875Z,1.97
2022-12-11T19:36:24.996Z,1.87
2022-12-11T19:41:24.596Z,1.86
2022-12-11T19:46:25.161Z,1.83
2022-12-11T19:51:24.618Z,1.85
2022-12-11T19:56:25.053Z,1.88
2022-12-11T20:06:25.333Z,1.78
2022-12-11T20:11:24.914Z,1.88
2022-12-11T20:16:46.338Z,1.67
2022-12-11T20:21:24.615Z,1.69
2022-12-11T20:26:24.953Z,1.83
2022-12-11T20:31:25.194Z,1.68
2022-12-11T20:36:24.848Z,1.74
2022-12-11T20:41:25.086Z,1.67
2022-12-11T20:46:25.278Z,1.62
2022-12-11T20:51:26.264Z,1.55
2022-12-11T20:56:25.157Z,1.57
2022-12-11T21:11:24.939Z,1.51
2022-12-11T21:16:24.952Z,1.50
2022-12-11T21:26:25.011Z,1.43
2022-12-11T21:31:25.083Z,1.40
2022-12-11T21:36:24.832Z,1.43
2022-12-11T21:41:24.975Z,1.27
2022-12-11T21:46:24.832Z,1.38
2022-12-11T21:51:24.895Z,1.48
2022-12-11T21:56:24.757Z,1.40
2022-12-11T22:01:24.687Z,1.35
2022-12-11T22:11:24.664Z,1.43
2022-12-11T22:16:24.739Z,1.20
2022-12-11T22:21:24.617Z,1.11
2022-12-11T22:26:24.962Z,1.17
2022-12-11T22:31:24.781Z,1.16
2022-12-11T22:36:24.933Z,1.17
2022-12-11T22:41:24.662Z,1.16
2022-12-11T22:46:24.871Z,1.08
2022-12-11T22:51:24.728Z,0.94
2022-12-11T22:56:24.866Z,0.93
2022-12-11T23:01:24.659Z,0.80
2022-12-11T23:06:24.864Z,0.93
2022-12-11T23:11:24.692Z,0.92
2022-12-11T23:16:24.856Z,0.89
2022-12-11T23:21:24.694Z,0.82
2022-12-11T23:26:24.784Z,0.78
2022-12-11T23:31:24.700Z,0.76
2022-12-11T23:36:24.747Z,0.75
2022-12-11T23:41:24.891Z,0.63
2022-12-11T23:46:24.763Z,0.57
2022-12-11T23:51:24.868Z,0.59
2022-12-11T23:56:24.658Z,0.68
